createdAt,value
2022-09-11T00:01:19.732Z,9.80
2022-09-11T00:03:47.267Z,10.07
2022-09-11T00:06:27.716Z,9.93
2022-09-11T00:09:00.596Z,9.33
2022-09-11T00:11:30.534Z,9.67
2022-09-11T00:13:57.647Z,11.03
2022-09-11T00:16:34.756Z,10.20
2022-09-11T00:19:07.570Z,10.10
2022-09-11T00:21:34.420Z,10.73
2022-09-11T00:24:01.279Z,10.40
2022-09-11T00:26:28.605Z,10.27
2022-09-11T00:28:56.201Z,10.77
2022-09-11T00:31:26.209Z,10.70
2022-09-11T00:33:52.992Z,10.40
2022-09-11T00:36:22.871Z,10.53
2022-09-11T00:38:50.156Z,11.43
2022-09-11T00:41:21.836Z,11.23
2022-09-11T00:43:51.989Z,10.53
2022-09-11T00:46:19.549Z,11.43
2022-09-11T00:48:50.380Z,11.93
2022-09-11T00:51:26.111Z,12.10
2022-09-11T00:53:56.652Z,12.07
2022-09-11T00:56:27.434Z,11.00
2022-09-11T00:58:56.259Z,12.07
2022-09-11T01:01:23.027Z,11.47
2022-09-11T01:03:50.527Z,11.40
2022-09-11T01:06:18.607Z,11.23
2022-09-11T01:08:45.375Z,12.47
2022-09-11T01:11:18.118Z,12.17
2022-09-11T01:13:57.718Z,11.83
2022-09-11T01:16:53.786Z,12.33
2022-09-11T01:19:59.057Z,12.53
2022-09-11T01:22:46.696Z,12.80
2022-09-11T01:25:38.610Z,11.63
2022-09-11T01:28:13.868Z,11.73
2022-09-11T01:30:46.783Z,13.10
2022-09-11T01:33:23.334Z,12.83
2022-09-11T01:36:07.751Z,11.83
2022-09-11T01:38:52.661Z,12.77
2022-09-11T01:41:27.748Z,14.30
2022-09-11T01:44:18.133Z,13.40
2022-09-11T01:46:49.833Z,12.73
2022-09-11T01:49:21.172Z,13.10
2022-09-11T01:51:52.420Z,14.53
2022-09-11T01:54:23.776Z,14.07
2022-09-11T01:56:55.828Z,13.80
2022-09-11T01:59:41.486Z,15.93
2022-09-11T02:02:13.411Z,16.50
2022-09-11T02:04:48.771Z,16.00
2022-09-11T02:07:21.895Z,16.63
2022-09-11T02:10:01.556Z,16.90
2022-09-11T02:12:40.883Z,17.23
2022-09-11T02:15:09.094Z,16.97
2022-09-11T02:17:52.233Z,17.90
2022-09-11T02:20:20.960Z,19.60
2022-09-11T02:22:48.996Z,18.83
2022-09-11T02:25:16.388Z,18.00
2022-09-11T02:27:44.897Z,18.37
2022-09-11T02:30:13.150Z,18.53
2022-09-11T02:32:43.564Z,19.00
2022-09-11T02:35:11.324Z,19.60
2022-09-11T02:38:20.198Z,19.27
2022-09-11T02:41:01.551Z,18.33
2022-09-11T02:43:29.939Z,18.87
2022-09-11T02:46:31.956Z,19.47
2022-09-11T02:49:19.457Z,19.90
2022-09-11T02:52:12.646Z,20.97
2022-09-11T02:55:12.489Z,20.33
2022-09-11T02:57:51.030Z,20.07
2022-09-11T03:00:17.783Z,19.87
2022-09-11T03:02:44.454Z,20.73
2022-09-11T03:05:12.494Z,20.20
2022-09-11T03:07:41.165Z,20.40
2022-09-11T03:10:11.129Z,21.33
2022-09-11T03:12:39.152Z,20.07
2022-09-11T03:15:06.711Z,20.07
2022-09-11T03:17:33.562Z,19.97
2022-09-11T03:20:00.227Z,21.00
2022-09-11T03:22:26.909Z,20.67
2022-09-11T03:24:53.983Z,20.67
2022-09-11T03:27:22.082Z,22.33
2022-09-11T03:29:49.623Z,23.10
2022-09-11T03:32:16.730Z,22.33
2022-09-11T03:34:43.484Z,21.77
2022-09-11T03:37:10.295Z,21.80
2022-09-11T03:39:37.044Z,22.60
2022-09-11T03:42:03.988Z,23.20
2022-09-11T03:44:30.866Z,23.53
2022-09-11T03:46:57.653Z,23.67
2022-09-11T03:49:24.846Z,23.37
2022-09-11T03:51:51.504Z,22.53
2022-09-11T03:54:20.991Z,24.40
2022-09-11T03:56:49.529Z,23.73
2022-09-11T03:59:16.419Z,22.77
2022-09-11T04:01:44.190Z,23.70
2022-09-11T04:04:11.024Z,23.20
2022-09-11T04:06:42.029Z,24.80
2022-09-11T04:09:09.062Z,24.60
2022-09-11T04:11:39.477Z,24.67
2022-09-11T04:14:13.011Z,23.93
2022-09-11T04:16:40.964Z,25.10
2022-09-11T04:19:07.696Z,24.83
2022-09-11T04:21:34.761Z,25.23
2022-09-11T04:24:02.019Z,24.77
2022-09-11T04:26:32.241Z,24.73
2022-09-11T04:29:14.314Z,25.00
2022-09-11T04:31:41.277Z,25.90
2022-09-11T04:34:11.530Z,25.50
2022-09-11T04:36:38.837Z,25.07
2022-09-11T04:39:09.699Z,24.50
2022-09-11T04:41:37.339Z,25.33
2022-09-11T04:44:05.611Z,24.97
2022-09-11T04:46:37.704Z,25.37
2022-09-11T04:49:08.944Z,25.50
2022-09-11T04:51:37.124Z,27.33
2022-09-11T04:54:05.627Z,27.60
2022-09-11T04:56:40.153Z,26.00
2022-09-11T04:59:22.245Z,25.90
2022-09-11T05:01:57.252Z,25.73
2022-09-11T05:04:26.147Z,25.70
2022-09-11T05:06:54.625Z,26.37
2022-09-11T05:09:21.472Z,26.97
2022-09-11T05:11:48.925Z,26.93
2022-09-11T05:14:18.473Z,25.50
2022-09-11T05:16:47.892Z,26.60
2022-09-11T05:19:16.949Z,26.40
2022-09-11T05:21:45.546Z,25.03
2022-09-11T05:24:12.243Z,28.10
2022-09-11T05:26:40.610Z,27.77
2022-09-11T05:29:13.098Z,28.37
2022-09-11T05:31:53.286Z,27.13
2022-09-11T05:34:22.165Z,26.73
2022-09-11T05:36:49.743Z,25.73
2022-09-11T05:39:17.649Z,27.83
2022-09-11T05:41:44.347Z,26.27
2022-09-11T05:44:12.232Z,26.30
2022-09-11T05:46:40.117Z,27.17
2022-09-11T05:49:07.001Z,27.37
2022-09-11T05:51:35.830Z,28.23
2022-09-11T05:54:04.059Z,29.57
2022-09-11T05:56:32.154Z,28.77
2022-09-11T05:59:04.936Z,27.37
2022-09-11T06:01:36.258Z,28.80
2022-09-11T06:04:19.718Z,28.90
2022-09-11T06:06:48.768Z,30.00
2022-09-11T06:09:16.761Z,27.47
2022-09-11T06:11:43.882Z,29.17
2022-09-11T06:14:13.196Z,28.23
2022-09-11T06:16:42.249Z,27.70
2022-09-11T06:19:12.335Z,27.63
2022-09-11T06:21:39.503Z,28.53
2022-09-11T06:24:27.124Z,28.90
2022-09-11T06:26:55.349Z,28.57
2022-09-11T06:29:22.765Z,30.33
2022-09-11T06:31:51.557Z,27.20
2022-09-11T06:34:22.292Z,28.33
2022-09-11T06:36:52.317Z,28.70
2022-09-11T06:39:26.707Z,28.37
2022-09-11T06:41:54.111Z,27.00
2022-09-11T06:44:27.411Z,26.83
2022-09-11T06:46:57.404Z,27.97
2022-09-11T06:49:24.649Z,26.57
2022-09-11T06:52:09.997Z,26.87
2022-09-11T06:54:37.743Z,26.30
2022-09-11T06:57:09.557Z,26.03
2022-09-11T06:59:36.233Z,25.30
2022-09-11T07:02:03.226Z,26.23
2022-09-11T07:04:30.229Z,26.30
2022-09-11T07:06:57.134Z,27.33
2022-09-11T07:09:25.168Z,25.37
2022-09-11T07:11:55.508Z,25.17
2022-09-11T07:14:24.414Z,25.30
2022-09-11T07:16:57.958Z,25.83
2022-09-11T07:19:26.074Z,25.87
2022-09-11T07:21:52.740Z,26.47
2022-09-11T07:24:21.323Z,26.77
2022-09-11T07:26:49.080Z,27.27
2022-09-11T07:29:29.347Z,27.47
2022-09-11T07:31:58.609Z,26.23
2022-09-11T07:34:26.822Z,26.80
2022-09-11T07:36:54.209Z,25.93
2022-09-11T07:39:23.817Z,26.87
2022-09-11T07:41:56.425Z,24.90
2022-09-11T07:44:27.780Z,24.13
2022-09-11T07:46:54.719Z,24.03
2022-09-11T07:49:21.620Z,24.43
2022-09-11T07:51:48.715Z,22.27
2022-09-11T07:54:28.985Z,23.23
2022-09-11T07:56:56.275Z,22.03
2022-09-11T07:59:22.984Z,20.97
2022-09-11T08:01:51.218Z,21.73
2022-09-11T08:04:18.147Z,20.30
2022-09-11T08:06:45.357Z,18.93
2022-09-11T08:09:20.412Z,19.83
2022-09-11T08:11:55.864Z,19.43
2022-09-11T08:14:24.785Z,21.00
2022-09-11T08:16:54.192Z,18.77
2022-09-11T08:19:24.103Z,20.27
2022-09-11T08:21:55.720Z,21.17
2022-09-11T08:24:24.470Z,20.83
2022-09-11T08:26:57.333Z,20.70
2022-09-11T08:29:26.276Z,20.20
2022-09-11T08:31:54.004Z,19.67
2022-09-11T08:34:22.253Z,18.43
2022-09-11T08:36:50.910Z,18.57
2022-09-11T08:39:18.686Z,19.00
2022-09-11T08:41:59.354Z,19.87
2022-09-11T08:44:50.499Z,19.07
2022-09-11T08:47:39.525Z,18.00
2022-09-11T08:50:23.418Z,17.70
2022-09-11T08:52:51.237Z,17.97
2022-09-11T08:55:41.121Z,17.80
2022-09-11T08:58:19.043Z,19.47
2022-09-11T09:00:58.390Z,19.87
2022-09-11T09:03:49.625Z,19.60
2022-09-11T09:06:36.489Z,19.53
2022-09-11T09:09:29.783Z,19.40
2022-09-11T09:12:18.194Z,17.63
2022-09-11T09:15:17.029Z,18.90
2022-09-11T09:18:07.397Z,17.17
2022-09-11T09:20:38.279Z,18.70
2022-09-11T09:23:19.537Z,20.10
2022-09-11T09:25:53.130Z,19.90
2022-09-11T09:28:21.878Z,21.60
2022-09-11T09:30:58.600Z,21.13
2022-09-11T09:33:52.896Z,21.57
2022-09-11T09:36:24.004Z,21.60
2022-09-11T09:38:52.765Z,21.87
2022-09-11T09:41:41.391Z,22.00
2022-09-11T09:44:46.403Z,21.00
2022-09-11T09:47:15.034Z,22.23
2022-09-11T09:49:43.225Z,21.77
2022-09-11T09:52:20.184Z,22.00
2022-09-11T09:54:55.748Z,22.70
2022-09-11T09:57:26.534Z,22.43
2022-09-11T10:00:02.187Z,22.67
2022-09-11T10:02:42.261Z,22.13
2022-09-11T10:05:20.882Z,22.10
2022-09-11T10:07:53.229Z,21.00
2022-09-11T10:10:32.997Z,20.63
2022-09-11T10:13:18.740Z,18.60
2022-09-11T10:15:49.123Z,19.57
2022-09-11T10:18:42.736Z,19.37
2022-09-11T10:21:12.608Z,18.07
2022-09-11T10:24:00.117Z,19.17
2022-09-11T10:26:32.946Z,19.07
2022-09-11T10:29:12.289Z,17.20
2022-09-11T10:31:40.930Z,16.47
2022-09-11T10:34:16.022Z,16.67
2022-09-11T10:36:53.975Z,17.47
2022-09-11T10:39:23.136Z,17.67
2022-09-11T10:41:54.508Z,16.97
2022-09-11T10:44:22.597Z,18.43
2022-09-11T10:47:15.593Z,17.40
2022-09-11T10:49:42.572Z,17.37
2022-09-11T10:52:09.105Z,16.13
2022-09-11T10:54:54.958Z,16.60
2022-09-11T10:57:34.067Z,16.73
2022-09-11T11:00:21.029Z,16.93
2022-09-11T11:02:54.469Z,16.50
2022-09-11T11:05:44.214Z,16.30
2022-09-11T11:08:43.987Z,15.87
2022-09-11T11:11:48.628Z,16.03
2022-09-11T11:14:44.343Z,16.40
2022-09-11T11:17:46.663Z,15.67
2022-09-11T11:20:50.162Z,15.87
2022-09-11T11:23:45.228Z,15.73
2022-09-11T11:26:52.628Z,15.60
2022-09-11T11:29:44.172Z,18.07
2022-09-11T11:32:40.538Z,17.27
2022-09-11T11:35:30.418Z,14.57
2022-09-11T11:38:28.022Z,15.03
2022-09-11T11:41:03.315Z,13.53
2022-09-11T11:43:34.423Z,15.37
2022-09-11T11:46:20.170Z,14.97
2022-09-11T11:49:04.710Z,15.37
2022-09-11T11:51:41.063Z,12.03
2022-09-11T11:54:20.332Z,21.70
2022-09-11T11:56:56.595Z,12.87
2022-09-11T11:59:44.578Z,14.97
2022-09-11T12:02:11.879Z,12.53
2022-09-11T12:05:05.393Z,13.30
2022-09-11T12:07:35.310Z,14.77
2022-09-11T12:10:05.022Z,15.27
2022-09-11T12:12:43.859Z,14.50
2022-09-11T12:15:22.723Z,12.50
2022-09-11T12:18:07.312Z,13.17
2022-09-11T12:20:40.794Z,12.43
2022-09-11T12:23:47.013Z,11.70
2022-09-11T12:26:17.206Z,10.60
2022-09-11T12:28:44.294Z,10.07
2022-09-11T12:31:14.638Z,10.00
2022-09-11T12:33:41.311Z,8.40
2022-09-11T12:36:12.840Z,8.33
2022-09-11T12:38:54.197Z,8.63
2022-09-11T12:41:35.654Z,8.60
2022-09-11T12:44:04.454Z,8.23
2022-09-11T12:46:31.168Z,7.30
2022-09-11T12:49:23.313Z,8.20
2022-09-11T12:51:54.310Z,7.67
2022-09-11T12:54:40.146Z,7.53
2022-09-11T12:57:14.560Z,7.87
2022-09-11T12:59:46.267Z,7.27
2022-09-11T13:02:27.674Z,6.70
2022-09-11T13:04:56.404Z,7.53
2022-09-11T13:07:43.053Z,6.93
2022-09-11T13:10:28.860Z,6.73
2022-09-11T13:12:58.669Z,7.07
2022-09-11T13:15:57.220Z,6.60
2022-09-11T13:18:33.667Z,6.90
2022-09-11T13:21:23.225Z,6.63
2022-09-11T13:23:53.193Z,7.80
2022-09-11T13:26:26.366Z,7.00
2022-09-11T13:28:56.504Z,7.40
2022-09-11T13:31:35.966Z,7.47
2022-09-11T13:34:12.735Z,6.57
2022-09-11T13:36:40.575Z,7.40
2022-09-11T13:39:09.131Z,7.27
2022-09-11T13:41:44.585Z,6.73
2022-09-11T13:44:30.398Z,7.30
2022-09-11T13:47:00.532Z,6.73
2022-09-11T13:49:39.007Z,7.37
2022-09-11T13:52:06.958Z,7.43
2022-09-11T13:54:41.199Z,7.07
2022-09-11T13:57:25.542Z,6.80
2022-09-11T13:59:56.848Z,7.47
2022-09-11T14:02:37.237Z,5.97
2022-09-11T14:05:13.667Z,7.57
2022-09-11T14:08:04.645Z,4.83
2022-09-11T14:10:38.560Z,6.27
2022-09-11T14:13:33.186Z,6.53
2022-09-11T14:16:14.383Z,7.30
2022-09-11T14:18:48.851Z,6.27
2022-09-11T14:21:37.581Z,5.67
2022-09-11T14:24:24.515Z,7.00
2022-09-11T14:26:51.646Z,5.97
2022-09-11T14:29:28.284Z,6.10
2022-09-11T14:32:34.186Z,6.40
2022-09-11T14:35:01.285Z,6.13
2022-09-11T14:37:34.641Z,6.93
2022-09-11T14:40:06.859Z,6.17
2022-09-11T14:42:36.065Z,6.97
2022-09-11T14:45:10.737Z,6.83
2022-09-11T14:47:38.088Z,5.90
2022-09-11T14:50:12.257Z,6.40
2022-09-11T14:52:42.452Z,5.83
2022-09-11T14:55:17.852Z,6.70
2022-09-11T14:57:46.569Z,6.00
2022-09-11T15:00:15.890Z,6.30
2022-09-11T15:02:42.618Z,6.30
2022-09-11T15:05:15.923Z,6.57
2022-09-11T15:07:45.460Z,5.87
2022-09-11T15:10:13.798Z,6.33
2022-09-11T15:12:40.526Z,5.57
2022-09-11T15:15:08.031Z,5.87
2022-09-11T15:17:36.305Z,5.53
2022-09-11T15:20:09.514Z,5.23
2022-09-11T15:22:38.824Z,5.40
2022-09-11T15:25:06.474Z,6.10
2022-09-11T15:27:33.915Z,5.23
2022-09-11T15:30:00.709Z,5.70
2022-09-11T15:32:28.210Z,5.43
2022-09-11T15:34:55.731Z,5.90
2022-09-11T15:37:24.377Z,5.50
2022-09-11T15:39:51.498Z,5.77
2022-09-11T15:42:18.623Z,4.97
2022-09-11T15:44:46.177Z,6.20
2022-09-11T15:47:13.662Z,5.03
2022-09-11T15:49:42.476Z,5.23
2022-09-11T15:52:09.183Z,5.40
2022-09-11T15:54:35.901Z,5.10
2022-09-11T15:57:03.090Z,5.13
2022-09-11T15:59:30.130Z,4.80
2022-09-11T16:01:57.342Z,5.07
2022-09-11T16:04:28.250Z,4.83
2022-09-11T16:06:56.204Z,5.57
2022-09-11T16:09:27.099Z,5.53
2022-09-11T16:11:55.029Z,5.00
2022-09-11T16:14:33.139Z,4.73
2022-09-11T16:17:02.071Z,5.40
2022-09-11T16:19:30.242Z,5.37
2022-09-11T16:21:59.006Z,5.33
2022-09-11T16:24:27.464Z,5.70
2022-09-11T16:26:56.138Z,7.13
2022-09-11T16:29:31.536Z,5.73
2022-09-11T16:32:11.917Z,5.23
2022-09-11T16:34:38.877Z,4.93
2022-09-11T16:37:05.784Z,6.07
2022-09-11T16:39:34.067Z,6.17
2022-09-11T16:42:02.193Z,5.93
2022-09-11T16:44:29.192Z,6.27
2022-09-11T16:46:55.857Z,5.37
2022-09-11T16:49:23.999Z,5.60
2022-09-11T16:51:52.044Z,5.80
2022-09-11T16:54:23.281Z,5.73
2022-09-11T16:56:50.075Z,5.80
2022-09-11T16:59:16.754Z,6.23
2022-09-11T17:01:43.629Z,6.23
2022-09-11T17:04:10.216Z,6.07
2022-09-11T17:06:37.101Z,6.07
2022-09-11T17:09:04.332Z,6.63
2022-09-11T17:11:34.268Z,6.30
2022-09-11T17:14:02.190Z,6.80
2022-09-11T17:16:32.091Z,6.57
2022-09-11T17:19:01.494Z,6.57
2022-09-11T17:21:30.466Z,6.53
2022-09-11T17:23:58.142Z,6.43
2022-09-11T17:26:26.975Z,6.43
2022-09-11T17:28:55.849Z,6.80
2022-09-11T17:31:23.194Z,7.60
2022-09-11T17:33:54.379Z,6.30
2022-09-11T17:36:24.194Z,7.10
2022-09-11T17:38:52.641Z,6.57
2022-09-11T17:41:20.939Z,6.47
2022-09-11T17:43:48.720Z,6.97
2022-09-11T17:46:20.666Z,6.70
2022-09-11T17:48:48.053Z,7.20
2022-09-11T17:51:21.281Z,7.27
2022-09-11T17:53:56.968Z,7.50
2022-09-11T17:56:28.421Z,7.27
2022-09-11T17:59:06.980Z,7.20
2022-09-11T18:01:34.957Z,6.50
2022-09-11T18:04:05.577Z,6.90
2022-09-11T18:06:39.509Z,7.80
2022-09-11T18:09:14.735Z,7.47
2022-09-11T18:11:43.205Z,6.93
2022-09-11T18:14:10.544Z,7.57
2022-09-11T18:16:37.441Z,7.67
2022-09-11T18:19:05.488Z,7.57
2022-09-11T18:21:34.143Z,7.33
2022-09-11T18:24:06.462Z,7.30
2022-09-11T18:26:40.151Z,7.47
2022-09-11T18:29:10.822Z,8.00
2022-09-11T18:31:41.347Z,8.63
2022-09-11T18:34:10.828Z,9.53
2022-09-11T18:36:37.561Z,7.57
2022-09-11T18:39:04.984Z,8.30
2022-09-11T18:41:34.982Z,8.27
2022-09-11T18:44:04.368Z,8.73
2022-09-11T18:46:34.599Z,8.73
2022-09-11T18:49:01.367Z,8.57
2022-09-11T18:51:27.905Z,9.03
2022-09-11T18:53:54.706Z,9.07
2022-09-11T18:56:24.823Z,8.57
2022-09-11T18:58:52.438Z,8.53
2022-09-11T19:01:33.967Z,8.20
2022-09-11T19:04:15.858Z,8.67
2022-09-11T19:06:44.783Z,8.40
2022-09-11T19:09:14.733Z,9.63
2022-09-11T19:11:42.075Z,9.10
2022-09-11T19:14:14.183Z,9.70
2022-09-11T19:16:41.670Z,11.67
2022-09-11T19:19:11.238Z,12.33
2022-09-11T19:21:38.608Z,11.67
2022-09-11T19:24:08.326Z,10.70
2022-09-11T19:26:43.731Z,10.83
2022-09-11T19:29:13.452Z,10.80
2022-09-11T19:31:41.310Z,10.37
2022-09-11T19:34:11.981Z,9.93
2022-09-11T19:36:39.413Z,11.37
2022-09-11T19:39:06.506Z,11.40
2022-09-11T19:41:37.306Z,11.23
2022-09-11T19:44:08.346Z,10.13
2022-09-11T19:46:38.240Z,10.27
2022-09-11T19:49:06.583Z,9.90
2022-09-11T19:51:36.246Z,9.90
2022-09-11T19:54:09.154Z,9.63
2022-09-11T19:56:38.130Z,10.00
2022-09-11T19:59:09.461Z,9.10
2022-09-11T20:01:36.417Z,9.90
2022-09-11T20:04:05.799Z,9.27
2022-09-11T20:06:34.854Z,9.37
2022-09-11T20:09:27.271Z,9.33
2022-09-11T20:11:49.456Z,9.80
2022-09-11T20:14:16.451Z,9.60
2022-09-11T20:16:43.179Z,9.60
2022-09-11T20:19:10.061Z,10.23
2022-09-11T20:21:37.573Z,9.57
2022-09-11T20:24:06.395Z,9.47
2022-09-11T20:26:33.730Z,9.37
2022-09-11T20:29:03.203Z,9.93
2022-09-11T20:31:32.622Z,9.23
2022-09-11T20:34:00.764Z,8.73
2022-09-11T20:36:30.012Z,9.40
2022-09-11T20:39:05.891Z,9.07
2022-09-11T20:41:33.557Z,9.20
2022-09-11T20:44:07.555Z,9.93
2022-09-11T20:46:34.464Z,10.00
2022-09-11T20:49:06.769Z,9.93
2022-09-11T20:51:34.679Z,10.20
2022-09-11T20:54:01.694Z,10.37
2022-09-11T20:56:28.641Z,10.03
2022-09-11T20:58:56.369Z,9.03
2022-09-11T21:01:25.363Z,10.10
2022-09-11T21:03:54.027Z,10.17
2022-09-11T21:06:26.027Z,10.70
2022-09-11T21:09:04.993Z,10.83
2022-09-11T21:11:34.373Z,10.87
2022-09-11T21:14:14.463Z,10.43
2022-09-11T21:16:41.878Z,10.37
2022-09-11T21:19:10.125Z,9.43
2022-09-11T21:21:40.767Z,11.03
2022-09-11T21:24:14.600Z,11.00
2022-09-11T21:26:42.456Z,10.63
2022-09-11T21:29:11.225Z,11.57
2022-09-11T21:31:54.252Z,11.37
2022-09-11T21:34:21.784Z,10.30
2022-09-11T21:36:48.780Z,11.53
2022-09-11T22:12:42.012Z,17.07
2022-09-11T22:15:13.591Z,16.10
2022-09-11T22:17:41.022Z,17.67
2022-09-11T22:20:08.030Z,17.43
2022-09-11T22:22:39.242Z,17.97
2022-09-11T22:25:07.371Z,18.03
2022-09-11T22:27:34.517Z,18.77
2022-09-11T22:30:01.509Z,18.73
2022-09-11T22:32:28.182Z,18.63
2022-09-11T22:34:55.578Z,18.83
2022-09-11T22:37:25.374Z,19.00
2022-09-11T22:39:54.780Z,17.40
2022-09-11T22:42:21.415Z,19.23
2022-09-11T22:44:51.796Z,19.73
2022-09-11T22:47:19.556Z,18.13
2022-09-11T22:49:48.832Z,19.33
2022-09-11T22:52:23.363Z,18.67
2022-09-11T22:54:50.615Z,19.23
2022-09-11T22:57:17.759Z,18.30
2022-09-11T22:59:47.216Z,18.93
2022-09-11T23:02:15.361Z,17.20
2022-09-11T23:05:05.232Z,19.17
2022-09-11T23:07:31.847Z,19.77
2022-09-11T23:09:58.471Z,19.30
2022-09-11T23:12:25.133Z,18.93
2022-09-11T23:14:54.236Z,18.70
2022-09-11T23:17:21.639Z,20.03
2022-09-11T23:19:52.307Z,19.07
2022-09-11T23:22:20.073Z,19.63
2022-09-11T23:24:46.663Z,19.50
2022-09-11T23:27:13.381Z,19.57
2022-09-11T23:29:39.987Z,20.03
2022-09-11T23:32:07.108Z,19.17
2022-09-11T23:34:33.757Z,19.47
2022-09-11T23:37:00.549Z,19.23
2022-09-11T23:39:27.081Z,19.67
2022-09-11T23:42:00.332Z,18.80
2022-09-11T23:44:27.191Z,18.83
2022-09-11T23:46:53.699Z,19.00
2022-09-11T23:49:20.439Z,19.03
2022-09-11T23:51:49.002Z,18.90
2022-09-11T23:54:15.894Z,18.40
2022-09-11T23:56:42.528Z,19.00
2022-09-11T23:59:09.235Z,19.07
